Time;durP1;ratioP1;P1;durP2;ratioP2;P2;SDS_P1;SDS_P2;PMS_P1;PMS_P2;Temp;Humidity;BMP_temperature;BMP_pressure;BME280_temperature;BME280_humidity;BME280_pressure;Samples;Min_cycle;Max_cycle;Signal;HPM_P1;HPM_P2
2023/05/12 00:02:05;;;;;;;8.32;4.45;;;9.50;67.50;;;;;;5075187;28;20540;-76
2023/05/12 00:04:30;;;;;;;7.38;4.97;;;9.50;67.60;;;;;;5074022;28;20051;-76
2023/05/12 00:06:56;;;;;;;8.77;5.40;;;9.50;67.60;;;;;;5075254;28;20107;-76
2023/05/12 00:09:21;;;;;;;8.55;5.35;;;9.50;67.70;;;;;;5075070;28;20023;-76
2023/05/12 00:11:48;;;;;;;10.30;5.15;;;9.40;67.70;;;;;;5075103;28;20021;-76
2023/05/12 00:14:14;;;;;;;10.10;5.70;;;9.40;67.80;;;;;;5074993;28;20027;-77
2023/05/12 00:16:40;;;;;;;9.95;4.55;;;9.40;67.70;;;;;;5073669;28;20032;-76
2023/05/12 00:19:06;;;;;;;10.90;4.90;;;9.40;68.00;;;;;;5073499;28;20066;-77
2023/05/12 00:21:32;;;;;;;9.65;5.13;;;9.40;68.00;;;;;;5073545;28;20501;-76
2023/05/12 00:23:57;;;;;;;11.70;5.03;;;9.40;67.90;;;;;;5074130;28;20040;-77
2023/05/12 00:26:23;;;;;;;9.27;5.05;;;9.40;68.30;;;;;;5073479;28;20055;-77
2023/05/12 00:28:49;;;;;;;9.65;4.78;;;9.40;68.40;;;;;;5074464;28;20386;-77
2023/05/12 00:31:14;;;;;;;9.02;5.00;;;9.30;68.40;;;;;;5074578;28;20021;-77
2023/05/12 00:33:40;;;;;;;9.90;4.47;;;9.30;69.20;;;;;;5074435;28;20144;-77
2023/05/12 00:36:07;;;;;;;8.85;4.68;;;9.30;68.60;;;;;;5074608;28;20086;-77
2023/05/12 00:38:33;;;;;;;8.05;4.85;;;9.20;68.80;;;;;;5074429;28;20119;-77
2023/05/12 00:41:00;;;;;;;9.82;5.43;;;9.20;68.90;;;;;;5073208;28;20547;-77
2023/05/12 00:43:25;;;;;;;8.15;5.10;;;9.20;68.90;;;;;;5057265;28;20047;-76
2023/05/12 00:45:51;;;;;;;7.32;4.75;;;9.20;69.20;;;;;;5054356;28;20033;-77
2023/05/12 00:48:17;;;;;;;8.32;4.70;;;9.20;69.10;;;;;;5054312;28;20390;-77
2023/05/12 00:50:43;;;;;;;7.93;4.70;;;9.10;69.30;;;;;;5053078;28;20017;-76
2023/05/12 00:53:11;;;;;;;7.05;4.70;;;9.10;69.20;;;;;;5054336;28;20036;-77
2023/05/12 00:55:36;;;;;;;12.88;5.40;;;9.10;69.30;;;;;;5056239;28;20467;-77
2023/05/12 00:58:02;;;;;;;8.52;5.47;;;9.10;69.50;;;;;;5072738;28;20020;-76
2023/05/12 01:00:28;;;;;;;8.90;5.30;;;9.10;69.40;;;;;;5074135;28;20025;-77
2023/05/12 01:02:57;;;;;;;8.82;4.90;;;9.00;69.60;;;;;;5073440;28;20466;-77
2023/05/12 01:05:30;;;;;;;9.35;5.03;;;9.00;70.10;;;;;;5074033;28;20091;-77
2023/05/12 01:07:59;;;;;;;5.90;4.70;;;8.90;70.30;;;;;;5072690;28;20040;-77
2023/05/12 01:10:25;;;;;;;8.20;5.13;;;8.90;70.70;;;;;;5073894;28;20151;-77
2023/05/12 01:12:50;;;;;;;10.73;5.18;;;8.80;71.10;;;;;;5072472;28;20452;-77
2023/05/12 01:15:17;;;;;;;7.30;4.45;;;8.80;71.20;;;;;;5073744;28;20095;-77
2023/05/12 01:18:00;;;;;;;9.60;4.55;;;8.80;71.50;;;;;;5073710;28;20020;-77
2023/05/12 01:20:26;;;;;;;;;;;8.70;71.40;;;;;;5074394;28;20029;-77
2023/05/12 01:22:53;;;;;;;6.43;4.70;;;8.70;71.20;;;;;;5072323;28;19908;-77
2023/05/12 01:25:22;;;;;;;12.43;4.60;;;8.70;71.40;;;;;;5073629;28;20107;-77
2023/05/12 01:27:49;;;;;;;8.27;4.93;;;8.70;71.90;;;;;;5073632;28;20028;-76
2023/05/12 01:30:17;;;;;;;6.47;4.40;;;8.70;72.20;;;;;;5072272;28;20431;-77
2023/05/12 01:32:42;;;;;;;8.75;4.72;;;8.60;72.60;;;;;;5073899;28;20424;-77
2023/05/12 01:35:08;;;;;;;13.30;4.55;;;8.60;72.70;;;;;;5072014;28;20052;-77
2023/05/12 01:37:34;;;;;;;9.82;4.22;;;8.60;72.90;;;;;;5073374;28;20123;-78
2023/05/12 01:40:00;;;;;;;7.07;5.13;;;8.50;73.10;;;;;;5073392;28;20103;-78
2023/05/12 01:42:26;;;;;;;8.35;5.43;;;8.50;73.50;;;;;;5073377;28;20032;-78
2023/05/12 01:44:52;;;;;;;10.80;5.07;;;8.40;73.50;;;;;;5073360;28;20078;-77
2023/05/12 01:47:18;;;;;;;10.75;4.30;;;8.40;74.00;;;;;;5073402;28;20618;-77
2023/05/12 01:49:44;;;;;;;8.02;4.50;;;8.30;74.60;;;;;;5072127;28;20016;-77
2023/05/12 01:52:10;;;;;;;8.25;4.90;;;8.30;74.50;;;;;;5073298;28;20036;-76
2023/05/12 01:54:35;;;;;;;7.10;4.25;;;8.30;74.80;;;;;;5073450;28;20053;-77
2023/05/12 01:57:01;;;;;;;7.60;4.85;;;8.30;74.90;;;;;;5071541;28;20028;-77
2023/05/12 01:59:26;;;;;;;7.93;4.70;;;8.30;74.60;;;;;;5072014;28;20017;-77
2023/05/12 02:01:52;;;;;;;7.15;4.72;;;8.30;75.00;;;;;;5073189;28;20044;-77
2023/05/12 02:04:18;;;;;;;10.90;4.93;;;8.30;75.20;;;;;;5071899;28;20031;-77
2023/05/12 02:06:43;;;;;;;7.75;4.63;;;8.20;75.40;;;;;;5071842;28;20039;-77
2023/05/12 02:09:09;;;;;;;6.85;4.55;;;8.20;75.60;;;;;;5071829;28;20028;-78
2023/05/12 02:11:35;;;;;;;7.38;4.57;;;8.20;75.80;;;;;;5071831;28;20102;-77
2023/05/12 02:14:01;;;;;;;9.77;5.10;;;8.20;75.70;;;;;;5071799;28;20056;-77
2023/05/12 02:16:26;;;;;;;7.15;4.53;;;8.10;76.20;;;;;;5071748;28;20071;-77
2023/05/12 02:18:52;;;;;;;10.25;5.10;;;8.10;76.20;;;;;;5073014;28;20028;-77
2023/05/12 02:21:17;;;;;;;14.02;5.40;;;8.10;76.80;;;;;;5071734;28;20505;-78
2023/05/12 02:23:43;;;;;;;5.53;4.72;;;8.10;77.20;;;;;;5071655;28;20478;-77
2023/05/12 02:26:09;;;;;;;7.97;4.60;;;8.00;77.00;;;;;;5071805;28;20025;-77
2023/05/12 02:28:35;;;;;;;12.35;5.00;;;8.00;76.90;;;;;;5072934;28;20021;-77
2023/05/12 02:31:01;;;;;;;9.93;5.53;;;8.00;77.40;;;;;;5073041;28;20051;-76
2023/05/12 02:33:26;;;;;;;7.15;5.05;;;8.00;77.70;;;;;;5072572;28;20025;-78
2023/05/12 02:35:52;;;;;;;9.07;5.10;;;7.90;78.00;;;;;;5052838;28;20041;-77
2023/05/12 02:38:17;;;;;;;9.85;4.75;;;7.90;78.50;;;;;;5051625;28;20043;-76
2023/05/12 02:40:45;;;;;;;7.40;4.43;;;7.90;78.40;;;;;;5052935;28;20048;-76
2023/05/12 02:43:10;;;;;;;8.00;4.90;;;7.90;78.60;;;;;;5052808;28;20028;-77
2023/05/12 02:45:36;;;;;;;7.25;4.65;;;7.90;78.40;;;;;;5052256;28;20025;-76
2023/05/12 02:48:02;;;;;;;9.68;5.50;;;7.90;78.40;;;;;;5056579;28;20367;-77
2023/05/12 02:50:27;;;;;;;4.78;4.07;;;7.90;78.50;;;;;;5056591;28;20462;-76
2023/05/12 02:52:53;;;;;;;6.55;4.25;;;7.90;78.50;;;;;;5056538;28;20021;-77
2023/05/12 02:55:18;;;;;;;7.80;5.32;;;7.90;78.80;;;;;;5056570;28;20470;-76
2023/05/12 02:57:44;;;;;;;11.18;5.05;;;7.90;79.20;;;;;;5056454;28;20036;-76
2023/05/12 03:00:11;;;;;;;8.40;4.65;;;7.80;79.00;;;;;;5055106;28;20025;-76
2023/05/12 03:02:38;;;;;;;10.02;5.22;;;7.80;79.50;;;;;;5055361;28;20105;-76
2023/05/12 03:05:04;;;;;;;5.85;4.93;;;7.80;80.00;;;;;;5056415;28;20021;-77
2023/05/12 03:07:30;;;;;;;8.10;4.88;;;7.70;80.50;;;;;;5056434;28;20063;-76
2023/05/12 03:09:57;;;;;;;6.28;4.80;;;7.70;81.50;;;;;;5056238;28;20025;-76
2023/05/12 03:12:22;;;;;;;7.03;4.90;;;7.70;81.60;;;;;;5056241;28;20024;-77
2023/05/12 03:14:48;;;;;;;7.63;5.13;;;7.60;81.40;;;;;;5056040;28;20029;-78
2023/05/12 03:17:14;;;;;;;7.65;4.70;;;7.60;82.10;;;;;;5054613;28;20044;-76
2023/05/12 03:19:39;;;;;;;6.45;4.80;;;7.60;82.90;;;;;;5054748;28;20017;-78
2023/05/12 03:22:06;;;;;;;11.25;7.03;;;7.60;83.10;;;;;;5054718;28;20017;-76
2023/05/12 03:24:32;;;;;;;8.75;5.20;;;7.50;83.10;;;;;;5055988;28;20021;-78
2023/05/12 03:26:59;;;;;;;6.72;4.68;;;7.60;84.30;;;;;;5054590;28;20475;-76
2023/05/12 03:29:25;;;;;;;16.73;5.43;;;7.50;83.20;;;;;;5054693;28;20017;-76
2023/05/12 03:31:51;;;;;;;8.52;5.32;;;7.60;83.40;;;;;;5054591;28;20051;-76
2023/05/12 03:34:16;;;;;;;8.32;5.13;;;7.60;83.70;;;;;;5055738;28;20053;-77
2023/05/12 03:36:42;;;;;;;8.77;4.75;;;7.60;83.50;;;;;;5055628;28;20033;-76
2023/05/12 03:39:08;;;;;;;9.23;5.55;;;7.60;83.40;;;;;;5055607;28;20533;-78
2023/05/12 03:41:34;;;;;;;8.90;5.13;;;7.70;83.50;;;;;;5054396;28;20021;-76
2023/05/12 03:44:00;;;;;;;7.05;4.78;;;7.70;83.60;;;;;;5055523;28;20028;-76
2023/05/12 03:46:25;;;;;;;11.07;5.05;;;7.80;82.80;;;;;;5055560;28;20459;-76
2023/05/12 03:48:51;;;;;;;10.10;6.55;;;7.90;81.90;;;;;;5055518;28;20052;-76
2023/05/12 03:51:17;;;;;;;8.70;5.10;;;8.10;81.20;;;;;;5054212;28;20052;-77
2023/05/12 03:53:45;;;;;;;6.13;4.97;;;8.20;80.10;;;;;;5055321;28;20021;-76
2023/05/12 03:56:11;;;;;;;9.48;5.00;;;8.30;79.20;;;;;;5055294;28;20437;-76
2023/05/12 03:58:36;;;;;;;7.03;4.55;;;8.40;79.10;;;;;;5052841;28;20021;-76
2023/05/12 04:01:02;;;;;;;10.95;4.88;;;8.50;78.40;;;;;;5055293;28;20039;-76
2023/05/12 04:03:28;;;;;;;8.40;5.03;;;8.60;78.60;;;;;;5053941;28;20531;-76
2023/05/12 04:05:59;;;;;;;10.43;5.20;;;8.60;77.40;;;;;;5053906;28;20025;-76
2023/05/12 04:08:24;;;;;;;8.20;5.10;;;8.70;77.10;;;;;;5053785;28;20195;-77
2023/05/12 04:10:53;;;;;;;8.32;4.75;;;8.80;76.50;;;;;;5053797;28;20118;-76
2023/05/12 04:13:18;;;;;;;7.85;5.60;;;8.90;76.10;;;;;;5055075;28;20057;-76
2023/05/12 04:15:44;;;;;;;7.47;5.13;;;8.90;75.60;;;;;;5053680;28;20128;-76
2023/05/12 04:18:09;;;;;;;7.00;4.63;;;9.10;75.60;;;;;;5053761;28;20024;-76
2023/05/12 04:20:35;;;;;;;5.43;4.38;;;9.10;75.40;;;;;;5054931;28;20029;-76
2023/05/12 04:23:01;;;;;;;5.45;4.95;;;9.10;74.70;;;;;;5054853;28;20021;-76
2023/05/12 04:25:26;;;;;;;8.35;4.88;;;9.10;75.00;;;;;;5054910;28;20028;-76
2023/05/12 04:27:52;;;;;;;7.97;5.43;;;9.20;74.80;;;;;;5054717;28;20076;-76
2023/05/12 04:30:17;;;;;;;7.95;4.95;;;9.20;75.00;;;;;;5054814;28;20033;-77
2023/05/12 04:32:43;;;;;;;7.47;4.50;;;9.30;74.50;;;;;;5090797;28;20435;-76
2023/05/12 04:35:08;;;;;;;6.53;5.03;;;9.30;74.10;;;;;;5093681;28;20059;-76
2023/05/12 04:37:34;;;;;;;7.00;4.45;;;9.40;73.70;;;;;;5093534;28;20039;-76
2023/05/12 04:40:00;;;;;;;8.55;4.78;;;9.50;74.10;;;;;;5091904;28;20404;-78
2023/05/12 04:42:26;;;;;;;9.02;4.90;;;9.60;73.50;;;;;;5067545;28;20119;-78
2023/05/12 04:44:51;;;;;;;9.57;5.03;;;9.60;73.10;;;;;;5053803;28;20033;-78
2023/05/12 04:47:17;;;;;;;7.70;4.38;;;9.60;73.00;;;;;;5054269;28;20534;-78
2023/05/12 04:49:42;;;;;;;5.88;4.95;;;9.60;72.70;;;;;;5054324;28;20021;-77
2023/05/12 04:52:08;;;;;;;8.90;5.10;;;9.70;72.80;;;;;;5069442;28;20154;-78
2023/05/12 04:54:33;;;;;;;7.15;4.50;;;9.70;72.90;;;;;;5069513;28;20074;-78
2023/05/12 04:56:59;;;;;;;7.40;4.57;;;9.80;72.90;;;;;;5069344;28;20033;-78
2023/05/12 04:59:25;;;;;;;5.15;4.63;;;9.80;72.90;;;;;;5054656;28;20454;-78
2023/05/12 05:01:50;;;;;;;9.10;4.63;;;9.80;73.30;;;;;;5073476;28;20024;-77
2023/05/12 05:04:16;;;;;;;7.82;4.68;;;9.90;72.90;;;;;;5072622;28;20027;-79
2023/05/12 05:06:41;;;;;;;10.82;4.80;;;9.90;73.20;;;;;;5072542;28;20120;-79
2023/05/12 05:09:07;;;;;;;11.57;4.53;;;10.00;73.50;;;;;;5072212;28;20083;-78
2023/05/12 05:11:33;;;;;;;6.22;4.75;;;10.10;72.70;;;;;;5073783;28;20644;-78
2023/05/12 05:13:59;;;;;;;7.95;5.25;;;10.10;72.60;;;;;;5071815;28;20107;-80
2023/05/12 05:16:24;;;;;;;6.32;3.95;;;10.20;73.50;;;;;;5072699;28;20440;-80
2023/05/12 05:18:50;;;;;;;8.50;4.95;;;10.10;72.10;;;;;;5073552;28;20052;-79
2023/05/12 05:21:16;;;;;;;6.32;4.75;;;10.20;72.70;;;;;;5072225;28;20024;-78
2023/05/12 05:23:41;;;;;;;9.00;4.75;;;10.30;72.60;;;;;;5072290;28;20457;-80
2023/05/12 05:26:08;;;;;;;4.95;4.43;;;10.30;71.80;;;;;;5073510;28;20474;-80
2023/05/12 05:28:34;;;;;;;7.32;4.80;;;10.50;72.20;;;;;;5072978;28;20474;-80
2023/05/12 05:30:59;;;;;;;8.77;4.93;;;10.50;71.70;;;;;;5071660;28;20422;-79
2023/05/12 05:33:25;;;;;;;7.68;4.68;;;10.50;71.60;;;;;;5073226;28;20017;-79
2023/05/12 05:35:51;;;;;;;8.55;5.15;;;10.60;71.30;;;;;;5073216;28;20039;-78
2023/05/12 05:38:17;;;;;;;5.95;4.63;;;10.60;71.40;;;;;;5071315;28;20482;-79
2023/05/12 05:40:43;;;;;;;6.57;4.55;;;10.70;71.20;;;;;;5069996;28;20025;-78
2023/05/12 05:43:10;;;;;;;8.02;4.75;;;10.80;71.50;;;;;;5070559;28;20133;-78
2023/05/12 05:45:36;;;;;;;8.48;4.35;;;10.90;70.20;;;;;;5069693;28;20017;-78
2023/05/12 05:48:01;;;;;;;6.85;4.78;;;11.00;70.60;;;;;;5067560;28;20028;-77
2023/05/12 05:50:27;;;;;;;5.18;4.68;;;11.10;70.70;;;;;;5068166;28;20056;-78
2023/05/12 05:52:55;;;;;;;9.95;4.95;;;11.20;70.10;;;;;;5068985;28;20024;-78
2023/05/12 05:55:21;;;;;;;8.38;5.00;;;11.30;70.30;;;;;;5068436;28;20020;-78
2023/05/12 05:57:47;;;;;;;8.05;4.97;;;11.40;69.90;;;;;;5069722;28;20546;-79
2023/05/12 06:00:13;;;;;;;7.30;5.00;;;11.50;70.00;;;;;;5068582;28;20103;-79
2023/05/12 06:02:40;;;;;;;8.82;4.88;;;11.50;69.00;;;;;;5069080;28;20393;-79
2023/05/12 06:05:06;;;;;;;7.63;5.13;;;11.70;68.40;;;;;;5070465;28;20021;-78
2023/05/12 06:07:32;;;;;;;4.70;4.15;;;11.80;68.30;;;;;;5069940;28;20029;-79
2023/05/12 06:09:57;;;;;;;4.70;4.13;;;11.80;68.00;;;;;;5071573;28;20070;-79
2023/05/12 06:12:23;;;;;;;5.20;4.57;;;12.00;68.20;;;;;;5070720;28;20027;-78
2023/05/12 06:14:49;;;;;;;6.47;4.57;;;12.10;66.60;;;;;;5071290;28;20036;-79
2023/05/12 06:17:15;;;;;;;7.78;4.97;;;12.30;66.00;;;;;;5071301;28;20041;-79
2023/05/12 06:19:42;;;;;;;6.13;4.20;;;12.40;66.00;;;;;;5072271;28;20114;-79
2023/05/12 06:22:08;;;;;;;5.53;4.28;;;12.50;66.00;;;;;;5075056;28;20478;-79
2023/05/12 06:24:34;;;;;;;5.80;4.55;;;12.50;65.60;;;;;;5075641;28;20062;-79
2023/05/12 06:27:00;;;;;;;5.53;4.45;;;12.60;65.50;;;;;;5076906;28;20537;-78
2023/05/12 06:29:25;;;;;;;8.65;4.57;;;12.70;64.50;;;;;;5075713;28;20393;-77
2023/05/12 06:31:51;;;;;;;5.30;3.85;;;12.90;65.30;;;;;;5076789;28;20032;-78
2023/05/12 06:34:17;;;;;;;8.75;4.40;;;13.00;65.20;;;;;;5076556;28;20091;-78
2023/05/12 06:36:43;;;;;;;5.00;4.50;;;13.10;65.10;;;;;;5076586;28;20039;-78
2023/05/12 06:39:08;;;;;;;7.85;4.18;;;13.30;65.20;;;;;;5076601;28;20033;-78
2023/05/12 06:41:34;;;;;;;4.80;3.58;;;13.30;64.10;;;;;;5076771;28;20020;-79
2023/05/12 06:44:01;;;;;;;7.70;5.68;;;13.40;63.30;;;;;;5075378;28;20032;-79
2023/05/12 06:46:27;;;;;;;6.57;4.63;;;13.50;63.00;;;;;;5076666;28;20546;-79
2023/05/12 06:48:54;;;;;;;5.20;4.05;;;13.70;62.80;;;;;;5076519;28;20068;-78
2023/05/12 06:51:20;;;;;;;7.82;4.10;;;13.80;61.90;;;;;;5075240;28;20020;-78
2023/05/12 06:53:45;;;;;;;9.85;4.07;;;13.80;61.50;;;;;;5074995;28;20094;-78
2023/05/12 06:56:15;;;;;;;6.50;4.40;;;13.90;61.50;;;;;;5073166;28;20482;-78
2023/05/12 06:58:44;;;;;;;6.15;3.70;;;14.00;60.90;;;;;;5076128;28;20021;-78
2023/05/12 07:01:09;;;;;;;4.93;3.65;;;14.10;60.60;;;;;;5074911;28;20021;-79
2023/05/12 07:03:35;;;;;;;6.03;4.32;;;14.30;60.40;;;;;;5075134;28;20020;-78
2023/05/12 07:06:01;;;;;;;4.22;3.65;;;14.40;59.70;;;;;;5076239;28;20024;-79
2023/05/12 07:08:27;;;;;;;5.28;3.58;;;14.50;59.60;;;;;;5076135;28;20027;-78
2023/05/12 07:10:52;;;;;;;6.25;4.60;;;14.50;59.30;;;;;;5074817;28;20093;-78
2023/05/12 07:13:18;;;;;;;7.57;4.28;;;14.50;59.60;;;;;;5076024;28;20020;-78
2023/05/12 07:15:44;;;;;;;9.27;4.15;;;14.70;59.80;;;;;;5075955;28;20020;-78
2023/05/12 07:18:09;;;;;;;6.32;4.10;;;14.80;58.90;;;;;;5074674;28;20021;-78
2023/05/12 07:20:35;;;;;;;6.25;4.05;;;14.70;58.00;;;;;;5074695;28;20021;-78
2023/05/12 07:23:00;;;;;;;5.80;3.75;;;14.80;58.40;;;;;;5074507;28;20020;-78
2023/05/12 07:25:27;;;;;;;6.30;3.95;;;15.00;57.60;;;;;;5074524;28;20385;-78
2023/05/12 07:27:52;;;;;;;4.63;3.30;;;15.10;58.00;;;;;;5075794;28;20029;-79
2023/05/12 07:30:19;;;;;;;7.95;4.13;;;15.20;57.40;;;;;;5074747;28;20397;-78
2023/05/12 07:32:45;;;;;;;8.52;3.83;;;15.30;57.60;;;;;;5076084;28;20048;-78
2023/05/12 07:35:11;;;;;;;7.30;3.80;;;15.50;57.30;;;;;;5086815;28;20055;-78
2023/05/12 07:37:37;;;;;;;7.68;3.75;;;15.50;57.40;;;;;;5093627;28;20397;-78
2023/05/12 07:40:03;;;;;;;8.48;3.45;;;15.50;57.00;;;;;;5095136;28;20020;-78
2023/05/12 07:42:29;;;;;;;6.43;3.70;;;15.50;56.30;;;;;;5095170;28;20108;-78
2023/05/12 07:44:55;;;;;;;6.05;3.20;;;15.60;57.00;;;;;;5095049;28;20103;-78
2023/05/12 07:47:20;;;;;;;5.72;3.53;;;15.70;55.80;;;;;;5093592;28;20024;-78
2023/05/12 07:49:46;;;;;;;6.20;2.78;;;15.70;55.40;;;;;;5093851;28;20515;-79
2023/05/12 07:52:11;;;;;;;4.80;3.38;;;15.80;55.60;;;;;;5094283;28;20017;-78
2023/05/12 07:54:37;;;;;;;7.18;3.40;;;15.80;55.40;;;;;;5096044;28;20030;-79
2023/05/12 07:57:03;;;;;;;4.40;3.17;;;15.60;55.00;;;;;;5094335;28;20070;-78
2023/05/12 07:59:28;;;;;;;4.30;3.45;;;15.70;55.60;;;;;;5096472;28;20470;-78
2023/05/12 08:01:54;;;;;;;5.55;3.58;;;15.80;55.50;;;;;;5098571;28;20081;-80
2023/05/12 08:04:20;;;;;;;7.07;3.05;;;15.80;54.40;;;;;;5094295;28;20023;-81
2023/05/12 08:06:45;;;;;;;6.97;3.25;;;15.80;54.60;;;;;;5094376;28;20043;-81
2023/05/12 08:09:11;;;;;;;3.88;3.15;;;15.80;55.10;;;;;;5095446;28;20101;-81
2023/05/12 08:11:37;;;;;;;4.00;3.20;;;15.90;54.00;;;;;;5095461;28;20024;-81
2023/05/12 08:14:02;;;;;;;7.22;3.60;;;16.00;54.30;;;;;;5094121;28;20024;-80
2023/05/12 08:16:28;;;;;;;5.88;3.28;;;16.00;54.70;;;;;;5095322;28;20043;-81
2023/05/12 08:18:54;;;;;;;3.40;2.92;;;16.10;54.50;;;;;;5077186;28;20024;-81
2023/05/12 08:21:19;;;;;;;8.57;4.00;;;16.30;54.80;;;;;;5074032;28;20029;-81
2023/05/12 08:23:45;;;;;;;4.13;3.22;;;16.30;54.90;;;;;;5072822;28;20044;-81
2023/05/12 08:26:11;;;;;;;3.90;3.25;;;16.40;55.20;;;;;;5074079;28;20017;-81
2023/05/12 08:28:36;;;;;;;5.00;3.20;;;16.40;54.70;;;;;;5072685;28;20025;-81
2023/05/12 08:31:02;;;;;;;9.40;4.45;;;16.40;55.10;;;;;;5072578;28;20371;-81
2023/05/12 08:33:28;;;;;;;5.78;3.72;;;16.40;55.30;;;;;;5072377;28;20115;-81
2023/05/12 08:35:54;;;;;;;7.00;3.22;;;16.60;55.70;;;;;;5073028;28;20021;-81
2023/05/12 08:38:20;;;;;;;4.22;3.65;;;16.80;55.00;;;;;;5074618;28;20059;-81
2023/05/12 08:40:56;;;;;;;5.32;3.70;;;16.80;55.00;;;;;;5074800;28;20048;-81
2023/05/12 08:43:28;;;;;;;6.35;4.28;;;16.90;55.30;;;;;;5074017;28;20020;-81
2023/05/12 08:45:57;;;;;;;3.63;3.30;;;17.10;54.70;;;;;;5070998;28;20055;-81
2023/05/12 08:48:27;;;;;;;4.18;3.13;;;16.80;54.10;;;;;;5072221;28;20021;-81
2023/05/12 08:50:54;;;;;;;4.93;3.78;;;17.00;54.80;;;;;;5073504;28;20017;-81
2023/05/12 08:53:23;;;;;;;5.18;3.10;;;17.30;55.20;;;;;;5072155;28;20025;-81
2023/05/12 08:55:50;;;;;;;6.20;4.00;;;17.40;54.50;;;;;;5073172;28;20428;-81
2023/05/12 08:58:16;;;;;;;5.00;3.30;;;17.50;55.10;;;;;;5071994;28;20063;-81
2023/05/12 09:00:43;;;;;;;6.18;3.25;;;17.50;53.70;;;;;;5072165;28;20024;-81
2023/05/12 09:03:12;;;;;;;3.00;2.70;;;17.60;53.40;;;;;;5073220;28;20104;-81
2023/05/12 09:05:40;;;;;;;5.45;3.25;;;17.60;53.50;;;;;;5087754;28;20036;-81
2023/05/12 09:08:08;;;;;;;8.02;3.42;;;17.80;53.90;;;;;;5093014;28;20043;-81
2023/05/12 09:10:34;;;;;;;4.63;3.13;;;17.90;52.80;;;;;;5093013;28;20103;-81
2023/05/12 09:13:16;;;;;;;7.72;3.30;;;17.70;52.90;;;;;;5092858;28;20024;-81
2023/05/12 09:15:44;;;;;;;4.73;3.63;;;17.80;53.90;;;;;;5077423;28;20426;-81
2023/05/12 09:18:10;;;;;;;5.25;3.03;;;18.00;54.80;;;;;;5071501;28;20031;-81
2023/05/12 09:20:36;;;;;;;4.15;2.97;;;18.00;53.50;;;;;;5073560;28;20025;-81
2023/05/12 09:23:15;;;;;;;4.43;3.03;;;18.20;53.60;;;;;;5072407;28;20017;-80
2023/05/12 09:25:41;;;;;;;13.85;3.60;;;18.30;53.30;;;;;;5074104;28;20036;-80
2023/05/12 09:28:08;;;;;;;4.78;2.63;;;18.20;52.40;;;;;;5072454;28;20021;-81
2023/05/12 09:30:36;;;;;;;5.57;3.45;;;18.10;52.50;;;;;;5073660;28;20017;-81
2023/05/12 09:33:12;;;;;;;6.38;3.50;;;18.00;52.10;;;;;;5073717;28;20378;-81
2023/05/12 09:35:42;;;;;;;6.25;3.30;;;17.90;52.40;;;;;;5071944;28;20055;-81
2023/05/12 09:38:09;;;;;;;5.60;3.45;;;18.10;53.70;;;;;;5072021;28;20028;-80
2023/05/12 09:40:35;;;;;;;5.40;3.55;;;18.20;54.50;;;;;;5073414;28;20534;-80
2023/05/12 09:43:02;;;;;;;3.92;2.75;;;18.40;53.90;;;;;;5073452;28;20051;-78
2023/05/12 09:45:27;;;;;;;7.22;3.20;;;18.50;53.10;;;;;;5082138;28;20031;-78
2023/05/12 09:47:53;;;;;;;6.07;3.35;;;18.50;52.10;;;;;;5091469;28;20565;-78
2023/05/12 09:50:18;;;;;;;7.22;3.55;;;18.50;52.30;;;;;;5093006;28;20032;-78
2023/05/12 09:52:44;;;;;;;3.47;3.15;;;18.30;51.90;;;;;;5092174;28;20481;-78
2023/05/12 09:55:11;;;;;;;5.32;3.40;;;18.40;51.90;;;;;;5092754;28;20069;-78
2023/05/12 09:57:44;;;;;;;4.30;3.78;;;18.30;52.30;;;;;;5092143;28;20043;-78
2023/05/12 10:00:12;;;;;;;;;;;18.40;52.00;;;;;;5092730;28;20020;-78
2023/05/12 10:02:42;;;;;;;3.70;3.08;;;18.40;53.20;;;;;;5093416;28;20280;-78
2023/05/12 10:05:17;;;;;;;7.80;3.75;;;18.50;52.70;;;;;;5093463;28;20107;-79
2023/05/12 10:07:49;;;;;;;3.60;3.30;;;18.40;52.30;;;;;;5092198;28;20032;-78
2023/05/12 10:10:18;;;;;;;3.92;3.53;;;18.50;52.70;;;;;;5093323;28;20027;-80
2023/05/12 10:12:45;;;;;;;3.88;3.45;;;18.40;51.80;;;;;;5093352;28;20028;-77
2023/05/12 10:15:11;;;;;;;5.80;3.63;;;18.40;51.30;;;;;;5093419;28;20497;-77
2023/05/12 10:17:40;;;;;;;4.88;3.63;;;18.50;52.20;;;;;;5093233;28;20111;-78
2023/05/12 10:20:08;;;;;;;4.55;3.58;;;18.50;52.00;;;;;;5093363;28;20020;-77
2023/05/12 10:22:37;;;;;;;6.20;3.38;;;18.50;51.80;;;;;;5092007;28;20035;-78
2023/05/12 10:25:06;;;;;;;2.83;2.50;;;18.60;50.50;;;;;;5091882;28;20064;-78
2023/05/12 10:27:32;;;;;;;7.15;3.13;;;18.70;50.20;;;;;;5092918;28;20024;-78
2023/05/12 10:30:00;;;;;;;3.28;2.88;;;18.80;49.70;;;;;;5090706;28;20477;-77
2023/05/12 10:32:26;;;;;;;4.32;2.42;;;18.90;48.60;;;;;;5090667;28;20044;-77
2023/05/12 10:34:52;;;;;;;5.32;2.80;;;18.80;47.40;;;;;;5069781;28;20394;-77
2023/05/12 10:37:18;;;;;;;3.30;2.80;;;19.00;48.00;;;;;;5068761;28;20047;-77
2023/05/12 10:39:51;;;;;;;4.15;3.00;;;19.20;47.70;;;;;;5070532;28;20028;-78
2023/05/12 10:42:24;;;;;;;3.75;2.95;;;19.10;47.40;;;;;;5070470;28;20025;-77
2023/05/12 10:44:54;;;;;;;3.45;2.92;;;19.00;47.30;;;;;;5071320;28;20056;-77
2023/05/12 10:47:36;;;;;;;2.50;2.30;;;18.80;46.60;;;;;;5071197;28;20025;-77
2023/05/12 10:50:02;;;;;;;4.57;2.70;;;19.00;47.10;;;;;;5071312;28;20020;-78
2023/05/12 10:52:27;;;;;;;13.57;2.95;;;19.20;47.70;;;;;;5072350;28;20516;-78
2023/05/12 10:54:59;;;;;;;5.60;3.08;;;19.40;47.10;;;;;;5072353;28;20020;-78
2023/05/12 10:57:25;;;;;;;3.00;2.70;;;19.10;47.40;;;;;;5072434;28;20033;-78
2023/05/12 10:59:58;;;;;;;6.10;2.30;;;19.00;46.80;;;;;;5071104;28;20592;-78
2023/05/12 11:02:31;;;;;;;4.68;2.67;;;18.90;46.60;;;;;;5071001;28;20036;-78
2023/05/12 11:04:58;;;;;;;3.42;2.15;;;18.90;45.70;;;;;;5071110;28;20119;-77
2023/05/12 11:07:29;;;;;;;2.63;2.25;;;18.80;45.40;;;;;;5074374;28;20020;-77
2023/05/12 11:09:57;;;;;;;4.68;2.45;;;19.00;45.40;;;;;;5076141;28;20028;-77
2023/05/12 11:12:25;;;;;;;5.07;2.40;;;18.70;44.90;;;;;;5074678;28;20059;-77
2023/05/12 11:14:51;;;;;;;3.40;2.25;;;18.70;45.50;;;;;;5094151;28;20069;-78
2023/05/12 11:17:16;;;;;;;3.05;2.75;;;18.60;44.70;;;;;;5095997;28;20028;-77
2023/05/12 11:19:47;;;;;;;3.75;2.45;;;18.40;44.60;;;;;;5067571;28;20028;-77
2023/05/12 11:22:15;;;;;;;3.35;2.35;;;18.70;45.20;;;;;;5055027;28;20025;-77
2023/05/12 11:24:46;;;;;;;3.72;1.83;;;18.80;43.20;;;;;;5054703;28;20025;-77
2023/05/12 11:27:13;;;;;;;2.30;2.10;;;19.10;43.80;;;;;;5071604;28;20021;-78
2023/05/12 11:29:40;;;;;;;3.38;2.05;;;19.20;43.70;;;;;;5071868;28;20029;-78
2023/05/12 11:32:07;;;;;;;3.95;2.00;;;19.10;42.90;;;;;;5071921;28;20044;-79
2023/05/12 11:34:33;;;;;;;2.00;1.77;;;19.00;42.60;;;;;;5070647;28;20478;-78
2023/05/12 11:36:59;;;;;;;2.58;2.00;;;18.70;42.30;;;;;;5072645;28;20047;-79
2023/05/12 11:39:31;;;;;;;2.10;1.90;;;18.60;41.70;;;;;;5071672;28;20070;-78
2023/05/12 11:42:08;;;;;;;1.85;1.75;;;18.50;41.70;;;;;;5072382;28;20086;-78
2023/05/12 11:44:34;;;;;;;3.45;2.05;;;18.80;42.80;;;;;;5071091;28;20032;-79
2023/05/12 11:47:06;;;;;;;3.90;2.10;;;18.90;42.70;;;;;;5073013;28;20025;-79
2023/05/12 11:49:31;;;;;;;2.72;2.28;;;19.10;42.60;;;;;;5070545;28;20117;-78
2023/05/12 11:51:59;;;;;;;3.20;2.00;;;19.00;42.00;;;;;;5074373;28;20063;-76
2023/05/12 11:54:28;;;;;;;3.65;2.25;;;18.90;42.00;;;;;;5073053;28;20036;-77
2023/05/12 11:56:55;;;;;;;4.07;2.25;;;19.20;42.30;;;;;;5073620;28;20040;-76
2023/05/12 11:59:32;;;;;;;2.38;2.17;;;19.10;41.80;;;;;;5071156;28;20082;-76
2023/05/12 12:01:59;;;;;;;3.05;2.30;;;19.00;41.60;;;;;;5072552;28;20405;-76
2023/05/12 12:04:39;;;;;;;2.30;2.10;;;18.70;41.50;;;;;;5071884;28;20565;-76
2023/05/12 12:07:06;;;;;;;2.95;1.88;;;18.60;42.80;;;;;;5071984;28;20070;-76
2023/05/12 12:09:41;;;;;;;3.05;2.17;;;18.70;43.60;;;;;;5073248;28;20074;-76
2023/05/12 12:12:09;;;;;;;4.78;2.40;;;18.90;42.90;;;;;;5070226;28;20090;-77
2023/05/12 12:14:36;;;;;;;3.20;1.95;;;18.80;43.10;;;;;;5071638;28;20020;-77
2023/05/12 12:17:03;;;;;;;3.65;2.50;;;18.60;42.50;;;;;;5071194;28;20055;-78
2023/05/12 12:19:29;;;;;;;8.20;2.58;;;18.50;43.20;;;;;;5070008;28;20043;-77
2023/05/12 12:21:55;;;;;;;4.93;2.17;;;18.70;43.00;;;;;;5074185;28;20013;-77
2023/05/12 12:24:22;;;;;;;4.32;1.75;;;18.80;42.90;;;;;;5072155;28;20386;-76
2023/05/12 12:26:47;;;;;;;3.13;1.85;;;18.90;43.10;;;;;;5071953;28;20021;-76
2023/05/12 12:29:13;;;;;;;3.53;2.65;;;19.00;42.50;;;;;;5072224;28;20111;-77
2023/05/12 12:31:39;;;;;;;4.32;2.30;;;19.10;43.20;;;;;;5070251;28;20024;-77
2023/05/12 12:34:04;;;;;;;3.17;2.17;;;19.00;42.90;;;;;;5068716;28;20405;-77
2023/05/12 12:36:31;;;;;;;3.92;2.90;;;19.00;42.70;;;;;;5071362;28;20075;-77
2023/05/12 12:38:57;;;;;;;3.08;2.00;;;19.00;42.70;;;;;;5070597;28;20378;-78
2023/05/12 12:41:23;;;;;;;3.03;2.50;;;19.00;42.80;;;;;;5070733;28;20016;-78
2023/05/12 12:43:49;;;;;;;5.15;2.38;;;18.70;41.90;;;;;;5072279;28;20028;-78
2023/05/12 12:46:14;;;;;;;4.53;2.40;;;18.80;42.60;;;;;;5072781;28;20027;-77
2023/05/12 12:48:41;;;;;;;8.98;2.78;;;18.80;42.50;;;;;;5072664;28;20028;-79